Time;durP1;ratioP1;P1;durP2;ratioP2;P2;SDS_P1;SDS_P2;PMS_P1;PMS_P2;Temp;Humidity;BMP_temperature;BMP_pressure;BME280_temperature;BME280_humidity;BME280_pressure;Samples;Min_cycle;Max_cycle;Signal;HPM_P1;HPM_P2
2022/11/23 00:01:15;;;;;;;17.73;8.52;;;;;;;12.14;71.38;99539.31;5050945;28;20039;-40
2022/11/23 00:03:41;;;;;;;14.73;8.40;;;;;;;12.18;71.10;99545.38;5052051;28;20409;-44
2022/11/23 00:06:06;;;;;;;19.08;8.75;;;;;;;11.91;71.78;99543.13;5051682;28;20025;-44
2022/11/23 00:08:31;;;;;;;17.25;8.93;;;;;;;12.23;71.18;99543.56;5051844;28;20029;-43
2022/11/23 00:10:57;;;;;;;18.55;8.90;;;;;;;12.11;71.45;99546.34;5050491;28;20024;-44
2022/11/23 00:13:23;;;;;;;19.25;8.75;;;;;;;12.12;71.39;99546.34;5050693;28;20358;-45
2022/11/23 00:15:48;;;;;;;19.05;9.23;;;;;;;12.09;71.69;99551.59;5050427;28;20025;-47
2022/11/23 00:18:14;;;;;;;17.80;9.13;;;;;;;12.12;71.70;99550.69;5050503;28;20412;-43
2022/11/23 00:20:39;;;;;;;19.30;8.90;;;;;;;12.29;71.31;99555.69;5049556;28;20401;-41
2022/11/23 00:23:05;;;;;;;17.17;8.63;;;;;;;12.24;71.39;99554.88;5050561;28;20024;-43
2022/11/23 00:25:30;;;;;;;17.40;8.88;;;;;;;12.31;70.79;99551.31;5049851;28;20021;-44
2022/11/23 00:27:55;;;;;;;15.18;8.52;;;;;;;12.15;71.32;99548.91;5050841;28;20021;-44
2022/11/23 00:30:21;;;;;;;17.42;8.65;;;;;;;12.07;71.77;99553.38;5049818;28;20573;-44
2022/11/23 00:32:46;;;;;;;17.02;8.90;;;;;;;12.14;71.24;99556.75;5050544;28;20025;-43
2022/11/23 00:35:11;;;;;;;16.05;8.15;;;;;;;12.40;70.62;99559.84;5051801;28;20021;-45
2022/11/23 00:37:36;;;;;;;14.32;8.23;;;;;;;12.37;70.89;99561.66;5033588;28;20508;-42
2022/11/23 00:40:02;;;;;;;16.70;8.48;;;;;;;12.27;71.15;99560.91;5051940;28;20477;-43
2022/11/23 00:42:27;;;;;;;17.65;8.40;;;;;;;12.32;70.77;99566.09;5053263;28;20032;-50
2022/11/23 00:44:53;;;;;;;15.35;8.02;;;;;;;12.30;70.63;99570.47;5054305;28;20032;-41
2022/11/23 00:47:18;;;;;;;15.55;8.30;;;;;;;12.15;71.12;99574.16;5052700;28;20104;-45
2022/11/23 00:49:43;;;;;;;16.73;8.65;;;;;;;12.32;70.78;99576.56;5051446;28;20025;-41
2022/11/23 00:52:09;;;;;;;18.90;8.32;;;;;;;12.34;70.94;99577.38;5049561;28;20513;-44
2022/11/23 00:54:34;;;;;;;14.55;8.20;;;;;;;12.35;70.82;99576.50;5049692;28;20025;-42
2022/11/23 00:56:59;;;;;;;15.90;8.77;;;;;;;12.15;71.64;99579.38;5049572;28;20029;-45
2022/11/23 00:59:24;;;;;;;17.00;8.32;;;;;;;12.36;70.63;99578.22;5050387;28;20536;-45
2022/11/23 01:01:50;;;;;;;16.25;8.07;;;;;;;12.40;70.58;99574.69;5049586;28;20465;-42
2022/11/23 01:04:15;;;;;;;17.98;8.38;;;;;;;12.47;70.34;99571.09;5049548;28;20132;-43
2022/11/23 01:06:40;;;;;;;14.85;8.27;;;;;;;12.49;70.05;99575.41;5049530;28;20025;-42
2022/11/23 01:09:12;;;;;;;18.75;9.07;;;;;;;12.33;70.16;99568.66;5049738;28;20047;-43
2022/11/23 01:11:37;;;;;;;14.05;8.25;;;;;;;12.35;70.39;99573.88;5049370;28;20033;-45
2022/11/23 01:14:03;;;;;;;16.30;9.00;;;;;;;12.16;70.73;99568.06;5049687;28;20537;-43
2022/11/23 01:16:33;;;;;;;14.40;8.95;;;;;;;12.05;71.61;99573.44;5049569;28;20040;-42
2022/11/23 01:19:01;;;;;;;19.85;8.77;;;;;;;12.25;70.98;99575.78;5050011;28;20017;-43
2022/11/23 01:21:29;;;;;;;18.52;8.80;;;;;;;12.15;70.97;99576.75;5049556;28;20473;-42
2022/11/23 01:23:55;;;;;;;20.55;9.32;;;;;;;12.20;71.33;99582.78;5049750;28;20028;-43
2022/11/23 01:26:21;;;;;;;17.95;9.40;;;;;;;12.11;71.33;99573.34;5049613;28;20029;-43
2022/11/23 01:28:46;;;;;;;20.02;8.80;;;;;;;12.25;71.61;99581.00;5049524;28;20032;-46
2022/11/23 01:31:19;;;;;;;17.95;9.05;;;;;;;12.27;71.78;99576.59;5050645;28;20099;-41
2022/11/23 01:33:45;;;;;;;21.35;9.68;;;;;;;12.32;71.44;99582.63;5054117;28;20020;-44
2022/11/23 01:36:13;;;;;;;17.73;8.70;;;;;;;12.41;70.93;99584.25;5053116;28;20029;-43
2022/11/23 01:38:40;;;;;;;16.27;8.85;;;;;;;12.19;71.64;99583.69;5053161;28;20028;-43
2022/11/23 01:41:09;;;;;;;16.83;8.68;;;;;;;12.28;71.17;99586.16;5053193;28;20064;-45
2022/11/23 01:43:35;;;;;;;17.65;9.07;;;;;;;12.26;70.65;99585.31;5052976;28;20505;-40
2022/11/23 01:46:01;;;;;;;19.25;8.65;;;;;;;12.42;70.61;99585.97;5053117;28;20033;-41
2022/11/23 01:48:35;;;;;;;18.77;8.73;;;;;;;12.39;70.83;99591.22;5053332;28;20374;-43
2022/11/23 01:51:04;;;;;;;15.45;8.02;;;;;;;12.34;70.98;99593.06;5053220;28;20453;-43
2022/11/23 01:53:30;;;;;;;15.25;7.75;;;;;;;12.44;70.32;99586.84;5053382;28;20499;-46
2022/11/23 01:55:59;;;;;;;16.55;7.85;;;;;;;12.44;70.15;99585.06;5054631;28;20021;-47
2022/11/23 01:58:27;;;;;;;18.92;7.22;;;;;;;12.44;70.49;99597.28;5054899;28;20025;-42
2022/11/23 02:00:53;;;;;;;20.23;7.85;;;;;;;12.11;71.04;99589.03;5053452;28;20119;-45
2022/11/23 02:03:18;;;;;;;16.75;6.88;;;;;;;12.37;70.53;99593.03;5054379;28;20446;-44
2022/11/23 02:05:48;;;;;;;13.23;6.15;;;;;;;12.33;70.56;99601.78;5054535;28;20025;-43
2022/11/23 02:08:15;;;;;;;11.52;6.30;;;;;;;12.32;70.65;99587.00;5053614;28;20111;-42
2022/11/23 02:10:41;;;;;;;14.38;6.13;;;;;;;12.34;70.41;99596.53;5052252;28;20021;-45
2022/11/23 02:13:09;;;;;;;13.32;5.72;;;;;;;12.19;70.66;99597.63;5052872;28;20032;-43
2022/11/23 02:15:35;;;;;;;13.77;5.85;;;;;;;12.39;69.99;99597.31;5053359;28;20045;-49
2022/11/23 02:18:03;;;;;;;13.95;6.00;;;;;;;12.38;70.06;99607.81;5053111;28;20036;-47
2022/11/23 02:20:29;;;;;;;12.68;5.55;;;;;;;12.45;69.80;99607.69;5052765;28;20104;-42
2022/11/23 02:23:03;;;;;;;11.95;5.63;;;;;;;12.34;69.96;99599.16;5052948;28;20029;-42
2022/11/23 02:25:44;;;;;;;11.27;5.97;;;;;;;12.29;70.19;99600.09;5053384;28;20385;-44
2022/11/23 02:28:17;;;;;;;11.40;5.93;;;;;;;12.36;69.91;99604.38;5054029;28;20485;-42
2022/11/23 02:30:46;;;;;;;10.33;5.93;;;;;;;12.44;69.50;99599.91;5055754;28;20488;-46
2022/11/23 02:33:11;;;;;;;14.18;6.38;;;;;;;12.41;69.29;99597.31;5060126;28;20025;-42
2022/11/23 02:35:48;;;;;;;13.23;6.38;;;;;;;12.31;69.48;99601.81;5059783;28;20021;-44
2022/11/23 02:38:13;;;;;;;16.02;6.43;;;;;;;12.35;69.44;99603.50;5052705;28;20064;-42
2022/11/23 02:40:39;;;;;;;14.15;6.10;;;;;;;12.41;69.08;99603.41;5052003;28;20491;-40
2022/11/23 02:43:04;;;;;;;14.40;6.82;;;;;;;12.09;69.93;99600.38;5052024;28;20028;-45
2022/11/23 02:45:41;;;;;;;12.23;6.45;;;;;;;12.09;69.62;99605.59;5052072;28;20161;-43
2022/11/23 02:48:07;;;;;;;12.25;6.35;;;;;;;12.09;69.41;99593.38;5051948;28;20040;-45
2022/11/23 02:50:32;;;;;;;15.23;6.82;;;;;;;11.90;69.99;99607.56;5051618;28;20028;-43
2022/11/23 02:52:57;;;;;;;17.15;7.40;;;;;;;11.95;70.06;99607.53;5051990;28;20024;-45
2022/11/23 02:55:23;;;;;;;12.70;6.60;;;;;;;12.04;70.00;99604.78;5051649;28;20405;-46
2022/11/23 02:57:48;;;;;;;14.13;7.32;;;;;;;11.99;70.54;99611.81;5066711;22;20176;-43
2022/11/23 03:00:14;;;;;;;15.85;7.18;;;;;;;12.02;70.35;99606.53;5051432;28;20027;-40
2022/11/23 03:02:40;;;;;;;14.85;7.38;;;;;;;12.07;70.36;99610.84;5051185;28;20025;-40
2022/11/23 03:05:06;;;;;;;13.80;7.10;;;;;;;12.05;69.90;99615.22;5051568;28;20083;-43
2022/11/23 03:07:31;;;;;;;13.40;7.28;;;;;;;12.00;70.68;99614.44;5051623;28;20025;-48
2022/11/23 03:09:57;;;;;;;17.42;7.88;;;;;;;11.91;70.84;99605.81;5051386;28;20039;-40
2022/11/23 03:12:22;;;;;;;14.18;7.95;;;;;;;11.71;71.08;99612.09;5051582;28;20056;-41
2022/11/23 03:14:47;;;;;;;13.85;7.63;;;;;;;11.88;70.95;99613.72;5051173;28;20024;-40
2022/11/23 03:17:12;;;;;;;14.52;7.28;;;;;;;12.04;70.48;99608.25;5051159;28;20056;-41
2022/11/23 03:19:38;;;;;;;13.90;8.10;;;;;;;11.94;70.96;99617.09;5051291;28;20095;-39
2022/11/23 03:22:03;;;;;;;14.32;8.20;;;;;;;11.89;71.11;99616.31;5050891;28;20496;-41
2022/11/23 03:24:28;;;;;;;12.73;7.97;;;;;;;12.05;70.93;99614.34;5051415;28;20111;-46
2022/11/23 03:26:54;;;;;;;15.88;8.05;;;;;;;12.06;70.87;99616.09;5051490;28;20083;-43
2022/11/23 03:29:19;;;;;;;13.35;7.82;;;;;;;12.05;70.75;99620.44;5051018;28;20025;-42
2022/11/23 03:31:45;;;;;;;13.00;7.97;;;;;;;12.17;70.46;99622.91;5050633;28;20473;-41
2022/11/23 03:34:10;;;;;;;14.93;8.38;;;;;;;11.97;70.87;99624.03;5051012;28;20020;-41
2022/11/23 03:36:35;;;;;;;15.57;9.02;;;;;;;11.88;71.61;99614.56;5050993;28;20496;-42
2022/11/23 03:39:01;;;;;;;16.48;8.57;;;;;;;11.98;71.76;99625.75;5050582;28;20444;-41
2022/11/23 03:41:26;;;;;;;13.48;7.85;;;;;;;12.27;70.35;99620.16;5050729;28;20029;-41
2022/11/23 03:43:52;;;;;;;12.82;8.20;;;;;;;12.17;70.58;99617.69;5050884;28;20031;-47
2022/11/23 03:46:17;;;;;;;11.77;8.10;;;;;;;12.10;71.26;99620.38;5050947;28;20390;-41
2022/11/23 03:48:42;;;;;;;14.45;7.90;;;;;;;12.19;70.71;99615.91;5050505;28;20036;-44
2022/11/23 03:51:08;;;;;;;16.15;8.45;;;;;;;12.19;71.08;99622.88;5050727;28;20064;-43
2022/11/23 03:53:33;;;;;;;12.07;7.95;;;;;;;12.20;70.98;99625.47;5050482;28;20032;-43
2022/11/23 03:55:58;;;;;;;16.15;8.40;;;;;;;12.17;71.19;99619.44;5050833;28;20475;-43
2022/11/23 03:58:24;;;;;;;12.60;7.60;;;;;;;12.39;70.50;99622.59;5050827;28;20021;-41
2022/11/23 04:00:49;;;;;;;15.10;8.00;;;;;;;12.30;70.71;99626.22;5050223;28;20483;-41
2022/11/23 04:03:14;;;;;;;13.98;7.63;;;;;;;12.38;70.58;99629.56;5050712;28;20032;-41
2022/11/23 04:05:39;;;;;;;14.63;7.82;;;;;;;12.23;70.97;99618.47;5051146;28;20071;-42
2022/11/23 04:08:05;;;;;;;12.52;7.25;;;;;;;12.36;70.40;99620.03;5051231;28;20025;-41
2022/11/23 04:10:30;;;;;;;12.85;7.20;;;;;;;12.48;70.15;99622.47;5050441;28;20021;-44
2022/11/23 04:12:55;;;;;;;14.80;7.30;;;;;;;12.06;70.95;99626.53;5050657;28;20039;-43
2022/11/23 04:15:21;;;;;;;12.73;7.32;;;;;;;12.17;71.13;99627.25;5050318;28;20100;-40
2022/11/23 04:17:46;;;;;;;10.20;6.78;;;;;;;12.25;70.55;99616.72;5049945;28;20021;-44
2022/11/23 04:20:12;;;;;;;10.77;6.40;;;;;;;12.47;69.96;99620.75;5050163;28;20060;-45
2022/11/23 04:22:37;;;;;;;10.57;6.63;;;;;;;12.34;70.09;99627.91;5050095;28;20036;-41
2022/11/23 04:25:03;;;;;;;8.88;5.95;;;;;;;12.47;69.90;99623.38;5050154;28;20032;-41
2022/11/23 04:27:28;;;;;;;10.48;6.20;;;;;;;12.38;69.92;99624.34;5050069;28;20033;-42
2022/11/23 04:29:53;;;;;;;11.13;6.22;;;;;;;12.24;69.87;99626.31;5032557;28;20106;-39
2022/11/23 04:32:19;;;;;;;10.18;6.13;;;;;;;12.47;69.47;99625.97;5049745;28;20033;-44
2022/11/23 04:34:44;;;;;;;10.13;5.75;;;;;;;12.40;69.69;99625.19;5049947;28;20422;-40
2022/11/23 04:37:09;;;;;;;10.00;5.55;;;;;;;12.52;69.28;99625.03;5032088;28;20058;-41
2022/11/23 04:39:35;;;;;;;10.82;5.70;;;;;;;12.40;69.32;99619.09;5049805;28;20111;-43
2022/11/23 04:42:00;;;;;;;12.60;6.13;;;;;;;12.41;69.34;99615.59;5049727;28;20040;-38
2022/11/23 04:44:25;;;;;;;10.90;6.05;;;;;;;12.50;68.98;99613.72;5050181;28;20466;-39
2022/11/23 04:46:51;;;;;;;13.48;6.60;;;;;;;12.53;68.82;99618.91;5049955;28;20021;-41
2022/11/23 04:49:16;;;;;;;11.60;6.30;;;;;;;12.40;69.37;99614.75;5050230;28;20078;-43
2022/11/23 04:51:42;;;;;;;13.45;6.60;;;;;;;12.60;68.50;99614.47;5050904;28;20148;-41
2022/11/23 04:54:08;;;;;;;11.38;6.35;;;;;;;12.69;68.05;99618.66;5052988;28;20476;-47
2022/11/23 04:56:33;;;;;;;13.93;7.10;;;;;;;12.73;68.08;99618.63;5053037;28;20068;-40
2022/11/23 04:58:58;;;;;;;15.77;6.95;;;;;;;12.60;68.65;99624.91;5052596;28;20028;-41
2022/11/23 05:01:23;;;;;;;13.02;7.10;;;;;;;12.61;68.38;99624.03;5050144;28;20079;-41
2022/11/23 05:03:49;;;;;;;16.27;7.50;;;;;;;12.67;68.33;99620.47;5049819;28;20095;-44
2022/11/23 05:06:14;;;;;;;11.90;6.90;;;;;;;12.63;68.80;99632.69;5051348;28;20048;-43
2022/11/23 05:08:40;;;;;;;15.10;7.15;;;;;;;12.67;68.33;99628.31;5054391;28;20028;-41
2022/11/23 05:11:05;;;;;;;15.70;6.80;;;;;;;12.69;68.20;99631.75;5053901;28;20484;-41
2022/11/23 05:13:30;;;;;;;14.35;6.63;;;;;;;12.61;68.20;99634.50;5055123;28;20492;-41
2022/11/23 05:15:56;;;;;;;11.32;6.15;;;;;;;12.66;67.83;99639.66;5055409;28;20052;-39
2022/11/23 05:18:21;;;;;;;11.80;6.53;;;;;;;12.63;67.76;99627.47;5055606;28;20443;-40
2022/11/23 05:20:46;;;;;;;9.30;5.43;;;;;;;12.63;67.79;99621.38;5054055;28;20043;-41
2022/11/23 05:23:12;;;;;;;11.20;5.60;;;;;;;12.68;67.55;99628.28;5053528;28;20025;-40
2022/11/23 05:25:38;;;;;;;13.23;5.72;;;;;;;12.60;67.32;99624.91;5053331;28;20029;-39
2022/11/23 05:28:03;;;;;;;12.98;5.57;;;;;;;12.30;68.45;99630.59;5053365;28;20399;-40
2022/11/23 05:30:29;;;;;;;11.02;5.28;;;;;;;12.29;68.56;99629.72;5052988;28;20257;-37
2022/11/23 05:33:00;;;;;;;11.13;5.15;;;;;;;12.32;68.22;99632.28;5053401;28;20036;-42
2022/11/23 05:35:25;;;;;;;11.32;5.45;;;;;;;12.27;68.34;99631.47;5053218;28;20103;-40
2022/11/23 05:37:51;;;;;;;13.73;5.50;;;;;;;12.41;67.57;99629.53;5053141;28;20120;-39
2022/11/23 05:40:16;;;;;;;11.55;5.20;;;;;;;12.39;67.39;99633.91;5053074;28;20033;-41
2022/11/23 05:42:42;;;;;;;10.40;5.40;;;;;;;12.27;67.53;99631.47;5053010;28;20115;-42
2022/11/23 05:45:08;;;;;;;15.23;5.75;;;;;;;12.04;68.02;99634.38;5053110;28;20097;-40
2022/11/23 05:47:33;;;;;;;11.00;5.60;;;;;;;12.14;67.91;99629.91;5053182;28;20425;-40
2022/11/23 05:49:58;;;;;;;11.73;5.47;;;;;;;12.03;68.13;99632.66;5053293;28;20191;-39
2022/11/23 05:52:24;;;;;;;14.82;5.85;;;;;;;11.98;68.38;99642.31;5052792;28;20039;-40
2022/11/23 05:54:50;;;;;;;13.18;5.93;;;;;;;12.02;68.33;99630.91;5053141;28;20481;-40
2022/11/23 05:57:16;;;;;;;14.20;5.85;;;;;;;12.02;68.42;99641.38;5052948;28;20040;-44
2022/11/23 05:59:42;;;;;;;12.85;6.10;;;;;;;12.22;67.85;99635.91;5053073;28;20096;-41
2022/11/23 06:02:07;;;;;;;17.95;6.47;;;;;;;12.07;67.94;99636.09;5052856;28;20549;-46
2022/11/23 06:04:32;;;;;;;15.57;6.18;;;;;;;12.23;67.91;99627.19;5035182;28;20013;-39
2022/11/23 06:06:59;;;;;;;13.88;5.97;;;;;;;12.11;67.96;99622.97;5052882;28;20028;-38
2022/11/23 06:09:26;;;;;;;13.00;6.70;;;;;;;12.11;68.10;99627.34;5052743;28;20024;-39
2022/11/23 06:11:51;;;;;;;16.45;6.28;;;;;;;12.11;67.70;99624.72;5052493;28;20408;-43
2022/11/23 06:14:16;;;;;;;14.93;6.15;;;;;;;12.16;67.66;99622.91;5053245;28;20104;-43
2022/11/23 06:16:42;;;;;;;15.35;5.95;;;;;;;12.03;67.77;99627.44;5051967;28;20091;-41
2022/11/23 06:19:07;;;;;;;15.52;6.10;;;;;;;12.04;67.90;99625.69;5052649;28;20090;-40
2022/11/23 06:21:32;;;;;;;16.13;5.97;;;;;;;12.13;67.35;99628.19;5051992;28;20021;-41
2022/11/23 06:23:58;;;;;;;13.82;5.25;;;;;;;12.06;67.34;99621.31;5052196;28;20029;-39
2022/11/23 06:26:24;;;;;;;14.35;5.18;;;;;;;11.92;67.74;99625.84;5052590;28;20370;-42
2022/11/23 06:28:49;;;;;;;15.38;4.68;;;;;;;12.10;66.98;99625.59;5052760;28;20017;-39
2022/11/23 06:31:15;;;;;;;14.75;4.03;;;;;;;11.91;67.38;99624.97;5052209;28;20036;-43
2022/11/23 06:33:40;;;;;;;14.38;4.18;;;;;;;11.66;67.28;99629.56;5052541;28;20047;-42
2022/11/23 06:36:06;;;;;;;14.45;3.50;;;;;;;11.64;67.40;99633.09;5052991;28;20074;-41
2022/11/23 06:38:32;;;;;;;13.98;3.70;;;;;;;11.60;67.29;99632.25;5052326;28;20098;-39
2022/11/23 06:40:58;;;;;;;12.65;3.10;;;;;;;11.59;67.39;99632.25;5052044;28;20028;-40
2022/11/23 06:43:24;;;;;;;13.27;3.40;;;;;;;11.42;67.55;99629.81;5052050;28;20021;-40
2022/11/23 06:45:49;;;;;;;15.18;3.20;;;;;;;11.30;67.80;99625.59;5051663;28;20032;-42
2022/11/23 06:48:15;;;;;;;11.98;2.92;;;;;;;11.24;68.57;99633.47;5052009;28;20025;-39
2022/11/23 06:50:40;;;;;;;13.35;3.10;;;;;;;11.22;68.36;99634.38;5051862;28;20396;-40
2022/11/23 06:53:06;;;;;;;15.00;3.10;;;;;;;11.22;68.29;99644.81;5052113;28;20416;-37
2022/11/23 06:55:31;;;;;;;12.70;3.03;;;;;;;11.19;68.45;99647.44;5052127;28;20040;-40
2022/11/23 06:57:58;;;;;;;11.43;2.67;;;;;;;11.20;68.05;99650.03;5051731;28;20029;-44
2022/11/23 07:00:23;;;;;;;9.82;2.50;;;;;;;11.13;68.59;99652.72;5051909;28;20603;-41
2022/11/23 07:02:53;;;;;;;10.50;2.40;;;;;;;11.11;68.56;99664.88;5052128;28;20100;-43
2022/11/23 07:05:19;;;;;;;10.98;2.53;;;;;;;11.13;68.46;99664.00;5052597;28;20032;-40
2022/11/23 07:07:44;;;;;;;12.27;2.50;;;;;;;10.94;69.03;99662.41;5053418;28;20024;-42
2022/11/23 07:10:10;;;;;;;13.30;2.50;;;;;;;11.00;69.16;99664.97;5035698;28;20389;-46
2022/11/23 07:12:35;;;;;;;11.13;2.25;;;;;;;11.12;69.28;99669.22;5052583;28;20067;-39
2022/11/23 07:15:00;;;;;;;9.30;2.53;;;;;;;11.30;68.43;99675.16;5048833;28;20024;-41
2022/11/23 07:17:26;;;;;;;13.98;2.97;;;;;;;11.37;68.30;99668.16;5033868;28;20765;-41
2022/11/23 07:19:51;;;;;;;13.30;2.63;;;;;;;11.17;68.69;99678.75;5051175;28;20025;-40
2022/11/23 07:22:16;;;;;;;11.75;2.20;;;;;;;11.51;68.48;99674.13;5050804;28;20053;-40
2022/11/23 07:24:42;;;;;;;13.50;2.50;;;;;;;11.62;68.07;99677.47;5051003;28;20552;-45
2022/11/23 07:27:07;;;;;;;10.95;2.00;;;;;;;11.43;68.30;99675.06;5033161;28;20035;-39
2022/11/23 07:29:32;;;;;;;8.02;1.92;;;;;;;11.52;67.88;99681.06;5050264;28;20035;-43
2022/11/23 07:31:58;;;;;;;13.93;2.20;;;;;;;11.43;67.73;99677.66;5050941;28;20439;-37
2022/11/23 07:34:23;;;;;;;14.70;2.17;;;;;;;11.52;67.15;99673.25;5051096;28;20541;-40
2022/11/23 07:36:48;;;;;;;14.50;2.30;;;;;;;11.61;66.97;99688.81;5051157;28;20035;-37
2022/11/23 07:39:13;;;;;;;10.70;2.65;;;;;;;11.75;66.63;99688.69;5050754;28;20029;-40
2022/11/23 07:41:39;;;;;;;11.65;2.65;;;;;;;11.70;66.78;99682.63;5050537;28;20048;-43
2022/11/23 07:44:04;;;;;;;11.10;2.25;;;;;;;11.76;67.03;99696.53;5050832;28;20043;-40
2022/11/23 07:46:29;;;;;;;12.80;2.20;;;;;;;11.71;66.54;99690.44;5050518;28;20361;-41
2022/11/23 07:49:00;;;;;;;11.27;2.17;;;;;;;11.75;66.94;99704.38;5050971;28;20048;-39
2022/11/23 07:51:25;;;;;;;7.82;1.90;;;;;;;11.96;66.16;99698.91;5050836;28;20564;-40
2022/11/23 07:53:50;;;;;;;12.68;2.17;;;;;;;11.93;66.02;99705.91;5051153;28;20188;-44
2022/11/23 07:56:16;;;;;;;14.25;2.50;;;;;;;11.94;66.14;99705.91;5051260;28;20017;-44
2022/11/23 07:58:41;;;;;;;11.23;2.53;;;;;;;12.06;66.01;99699.69;5051453;28;20480;-41
2022/11/23 08:01:06;;;;;;;13.68;2.08;;;;;;;12.05;66.24;99705.78;5051753;28;20104;-42
2022/11/23 08:03:31;;;;;;;10.10;1.92;;;;;;;12.18;65.75;99702.16;5051710;28;20482;-41
2022/11/23 08:05:57;;;;;;;12.15;2.15;;;;;;;11.87;66.55;99705.97;5050934;28;20123;-41
2022/11/23 08:08:22;;;;;;;13.35;2.08;;;;;;;11.84;66.64;99706.00;5051410;28;20538;-40
2022/11/23 08:10:47;;;;;;;10.07;2.20;;;;;;;12.16;65.57;99693.47;5051313;28;20119;-41
2022/11/23 08:13:13;;;;;;;11.27;2.10;;;;;;;11.97;66.11;99712.84;5052582;28;20021;-38
2022/11/23 08:15:38;;;;;;;9.85;2.20;;;;;;;12.05;65.75;99713.63;5052982;28;20017;-39
2022/11/23 08:18:04;;;;;;;15.77;2.42;;;;;;;12.01;66.27;99725.00;5052703;28;20032;-42
2022/11/23 08:20:30;;;;;;;9.95;2.38;;;;;;;11.89;66.11;99712.94;5050521;28;20348;-41
2022/11/23 08:22:56;;;;;;;12.45;2.13;;;;;;;12.03;65.31;99710.16;5051020;28;20079;-39
2022/11/23 08:25:23;;;;;;;12.63;2.22;;;;;;;12.14;65.01;99716.97;5050835;28;20481;-39
2022/11/23 08:28:00;;;;;;;9.30;2.42;;;;;;;12.15;64.46;99715.25;5050229;28;20063;-39
2022/11/23 08:30:27;;;;;;;8.95;2.08;;;;;;;12.39;64.35;99714.06;5049949;28;20023;-39
2022/11/23 08:32:52;;;;;;;14.60;2.70;;;;;;;12.35;64.07;99712.41;5049902;28;20400;-39
2022/11/23 08:35:18;;;;;;;10.35;2.40;;;;;;;12.20;64.10;99705.59;5050201;28;20080;-44
2022/11/23 08:37:43;;;;;;;12.10;2.20;;;;;;;12.25;63.72;99710.78;5051005;28;20029;-40
2022/11/23 08:40:10;;;;;;;12.38;2.22;;;;;;;12.14;63.46;99710.88;5032265;28;20036;-40
2022/11/23 08:42:35;;;;;;;11.07;2.08;;;;;;;12.28;62.72;99705.50;5050401;28;20029;-40
2022/11/23 08:45:02;;;;;;;11.70;2.47;;;;;;;12.26;62.80;99697.69;5050310;28;20142;-43
2022/11/23 08:47:27;;;;;;;11.77;1.98;;;;;;;12.06;62.85;99702.28;5050031;28;20028;-39
2022/11/23 08:49:53;;;;;;;14.00;2.13;;;;;;;12.41;61.70;99694.03;5050334;28;20053;-40
2022/11/23 08:52:18;;;;;;;12.50;2.40;;;;;;;12.29;61.69;99692.44;5049202;28;20115;-40
2022/11/23 08:54:43;;;;;;;9.70;2.33;;;;;;;12.59;61.56;99686.81;5049807;28;20100;-40
2022/11/23 08:57:09;;;;;;;12.27;2.85;;;;;;;12.62;61.89;99695.50;5051343;28;20235;-44
2022/11/23 08:59:34;;;;;;;11.52;2.42;;;;;;;12.83;61.85;99688.19;5052650;28;20029;-40
2022/11/23 09:01:59;;;;;;;10.60;2.70;;;;;;;12.99;61.18;99684.47;5052345;28;20515;-42
2022/11/23 09:04:26;;;;;;;11.25;2.33;;;;;;;12.69;62.12;99669.22;5052031;28;20025;-41
2022/11/23 09:06:52;;;;;;;12.93;2.58;;;;;;;12.89;61.42;99659.34;5052624;28;20108;-41
2022/11/23 09:09:17;;;;;;;13.70;2.72;;;;;;;13.06;60.66;99666.91;5052579;28;20059;-40
2022/11/23 09:11:43;;;;;;;9.52;2.75;;;;;;;13.05;60.46;99661.72;5051942;28;20021;-40
2022/11/23 09:14:08;;;;;;;15.20;2.30;;;;;;;12.84;60.63;99653.31;5052485;28;20029;-40
2022/11/23 09:16:33;;;;;;;11.07;2.65;;;;;;;12.67;60.26;99644.00;5051748;28;20580;-45
2022/11/23 09:18:59;;;;;;;13.45;2.60;;;;;;;12.76;60.20;99638.63;5052073;28;20027;-40
2022/11/23 09:21:28;;;;;;;10.43;2.42;;;;;;;12.51;61.28;99627.66;5052191;28;20028;-41
2022/11/23 09:23:54;;;;;;;14.05;2.70;;;;;;;12.25;61.97;99624.56;5052252;28;20056;-40
2022/11/23 09:26:19;;;;;;;17.00;3.00;;;;;;;12.49;62.09;99608.53;5051812;28;20053;-41
2022/11/23 09:28:44;;;;;;;12.27;2.70;;;;;;;12.47;62.20;99624.22;5052449;28;20032;-40
2022/11/23 09:31:10;;;;;;;12.65;2.50;;;;;;;12.60;61.54;99614.47;5051449;28;20053;-43
2022/11/23 09:33:35;;;;;;;11.77;2.83;;;;;;;12.47;61.24;99605.06;5051995;28;20021;-41
2022/11/23 09:36:02;;;;;;;15.77;2.95;;;;;;;12.60;60.69;99611.84;5052168;28;20465;-40
2022/11/23 09:38:27;;;;;;;15.18;2.80;;;;;;;12.42;61.35;99599.91;5033544;28;20037;-40
2022/11/23 09:41:13;;;;;;;13.25;2.58;;;;;;;12.36;61.62;99601.75;5051622;28;20047;-43
2022/11/23 09:43:49;;;;;;;11.10;3.05;;;;;;;12.61;61.02;99600.50;5051114;28;20040;-41
2022/11/23 09:46:30;;;;;;;11.98;2.42;;;;;;;12.35;61.48;99607.84;5051812;28;20478;-41
2022/11/23 09:49:15;;;;;;;9.48;2.28;;;;;;;12.06;61.70;99613.47;5052564;28;20039;-42
2022/11/23 09:51:43;;;;;;;11.00;2.38;;;;;;;12.26;61.20;99618.44;5053490;28;20417;-41
2022/11/23 09:54:21;;;;;;;12.52;2.55;;;;;;;12.29;60.95;99624.50;5056714;28;20047;-40
2022/11/23 09:56:50;;;;;;;10.65;2.55;;;;;;;11.99;61.37;99628.38;5055545;28;20025;-45
2022/11/23 09:59:33;;;;;;;11.60;2.50;;;;;;;12.04;61.57;99630.91;5056829;28;20084;-42
2022/11/23 10:01:59;;;;;;;14.20;2.40;;;;;;;11.89;61.69;99634.59;5055924;28;20481;-41
2022/11/23 10:04:28;;;;;;;12.98;2.88;;;;;;;11.94;61.20;99630.16;5054388;28;20051;-43
2022/11/23 10:07:23;;;;;;;9.98;2.47;;;;;;;12.15;61.51;99636.84;5053823;28;20488;-40
2022/11/23 10:09:54;;;;;;;11.65;2.72;;;;;;;12.03;61.66;99644.84;5036262;28;20491;-40
2022/11/23 10:12:34;;;;;;;15.10;2.90;;;;;;;11.93;61.87;99640.63;5053390;28;20075;-42
2022/11/23 10:15:26;;;;;;;13.95;3.03;;;;;;;11.92;62.01;99646.72;5053683;28;20100;-43
2022/11/23 10:18:14;;;;;;;14.32;3.08;;;;;;;12.43;60.86;99645.22;5035270;28;20481;-40
2022/11/23 10:21:06;;;;;;;13.63;3.38;;;;;;;11.99;61.71;99638.81;5053089;28;20033;-39
2022/11/23 10:23:54;;;;;;;10.35;3.30;;;;;;;12.26;61.25;99637.56;5053200;28;20029;-41
2022/11/23 10:26:30;;;;;;;13.35;3.45;;;;;;;12.20;61.37;99646.38;5052808;28;20576;-44
2022/11/23 10:29:01;;;;;;;12.35;4.07;;;;;;;11.71;62.17;99647.81;5053391;28;20118;-43
2022/11/23 10:31:28;;;;;;;16.95;4.53;;;;;;;11.90;61.66;99643.25;5053395;28;20530;-44
2022/11/23 10:34:16;;;;;;;12.90;4.60;;;;;;;12.27;60.88;99644.53;5054053;28;20021;-43
2022/11/23 10:36:41;;;;;;;15.63;4.25;;;;;;;12.32;60.48;99628.81;5053599;28;20070;-41
2022/11/23 10:39:20;;;;;;;15.80;4.85;;;;;;;12.20;61.17;99640.28;5054966;28;20427;-41
2022/11/23 10:41:46;;;;;;;14.63;4.90;;;;;;;12.13;60.77;99636.03;5053249;28;20032;-44
2022/11/23 10:44:25;;;;;;;16.85;4.90;;;;;;;11.94;61.85;99629.31;5053640;28;20016;-41
2022/11/23 10:46:51;;;;;;;14.00;4.25;;;;;;;12.25;61.04;99629.78;5053157;28;20025;-41
2022/11/23 10:49:18;;;;;;;17.55;4.68;;;;;;;12.51;60.47;99622.44;5053512;28;20024;-42
2022/11/23 10:52:22;;;;;;;15.55;4.65;;;;;;;12.58;59.96;99621.47;5053744;28;20285;-43
2022/11/23 10:54:57;;;;;;;12.20;4.63;;;;;;;12.50;60.17;99616.34;5053539;28;20090;-44
2022/11/23 10:57:33;;;;;;;;;;;;;;;12.53;59.94;99608.47;5054530;28;20024;-43
2022/11/23 11:00:08;;;;;;;11.10;4.75;;;;;;;12.37;60.23;99606.09;5054558;28;19970;-43
2022/11/23 11:02:47;;;;;;;14.23;5.70;;;;;;;12.41;59.56;99599.94;5054018;28;20086;-41
2022/11/23 11:05:21;;;;;;;14.70;5.22;;;;;;;12.63;59.76;99587.38;5055327;28;20021;-42
2022/11/23 11:07:47;;;;;;;14.60;5.20;;;;;;;12.31;60.09;99566.97;5055050;28;20025;-40
2022/11/23 11:10:38;;;;;;;17.20;5.15;;;;;;;12.29;59.95;99572.22;5054619;28;20029;-42
2022/11/23 11:13:21;;;;;;;13.93;4.60;;;;;;;12.20;60.34;99567.97;5053243;28;20544;-41
2022/11/23 11:15:56;;;;;;;14.13;4.63;;;;;;;12.00;60.91;99571.75;5052957;28;20025;-40
2022/11/23 11:18:27;;;;;;;11.90;4.38;;;;;;;12.35;60.16;99566.03;5053483;28;20477;-41
2022/11/23 11:20:58;;;;;;;12.20;4.30;;;;;;;12.06;60.56;99554.25;5052877;28;20020;-43
2022/11/23 11:23:25;;;;;;;12.40;4.32;;;;;;;12.18;60.67;99561.06;5052905;28;20107;-41
2022/11/23 11:26:03;;;;;;;13.07;4.10;;;;;;;12.33;60.20;99552.13;5052726;28;20527;-42
2022/11/23 11:28:42;;;;;;;11.63;3.90;;;;;;;12.33;60.27;99552.13;5035068;28;20116;-41